createdAt,value
2024-04-05T00:00:53.608Z,96.90
2024-04-05T00:03:39.947Z,97.53
2024-04-05T00:06:05.188Z,97.04
2024-04-05T00:08:34.594Z,96.79
2024-04-05T00:11:01.120Z,96.85
2024-04-05T00:13:26.119Z,96.77
2024-04-05T00:15:53.270Z,96.62
2024-04-05T00:18:20.418Z,96.68
2024-04-05T00:20:46.796Z,96.69
2024-04-05T00:23:11.750Z,96.57
2024-04-05T00:25:38.739Z,96.71
2024-04-05T00:28:05.754Z,97.10
2024-04-05T00:30:32.174Z,97.41
2024-04-05T00:32:58.714Z,97.29
2024-04-05T00:35:25.368Z,97.42
2024-04-05T00:37:51.903Z,97.49
2024-04-05T00:40:18.627Z,97.39
2024-04-05T00:42:45.167Z,97.45
2024-04-05T00:45:11.833Z,97.48
2024-04-05T00:47:38.728Z,97.35
2024-04-05T00:50:08.171Z,97.21
2024-04-05T00:52:35.115Z,97.14
2024-04-05T00:55:02.248Z,96.99
2024-04-05T00:57:29.293Z,96.90
2024-04-05T00:59:56.451Z,96.76
2024-04-05T01:02:23.082Z,96.76
2024-04-05T01:04:49.516Z,96.67
2024-04-05T01:07:16.057Z,96.65
2024-04-05T01:09:42.591Z,96.62
2024-04-05T01:12:10.082Z,96.55
2024-04-05T01:14:36.697Z,96.70
2024-04-05T01:17:03.144Z,96.70
2024-04-05T01:19:32.936Z,96.64
2024-04-05T01:22:01.954Z,96.58
2024-04-05T01:24:28.881Z,96.65
2024-04-05T01:26:55.412Z,96.95
2024-04-05T01:29:21.960Z,96.78
2024-04-05T01:31:48.288Z,97.02
2024-04-05T01:34:15.629Z,96.98
2024-04-05T01:36:41.987Z,97.07
2024-04-05T01:39:06.971Z,97.15
2024-04-05T01:41:35.342Z,97.15
2024-04-05T01:44:03.670Z,97.06
2024-04-05T01:46:30.148Z,96.88
2024-04-05T01:48:56.688Z,96.93
2024-04-05T01:51:23.550Z,96.76
2024-04-05T01:53:50.068Z,96.72
2024-04-05T01:56:16.599Z,96.70
2024-04-05T01:58:44.386Z,96.63
2024-04-05T02:01:10.840Z,96.53
2024-04-05T02:03:35.906Z,96.29
2024-04-05T02:06:02.394Z,96.43
2024-04-05T02:08:27.437Z,96.38
2024-04-05T02:10:53.857Z,96.28
2024-04-05T02:13:20.412Z,96.28
2024-04-05T02:15:49.237Z,96.26
2024-04-05T02:18:15.732Z,96.09
2024-04-05T02:20:44.418Z,96.10
2024-04-05T02:23:11.102Z,95.96
2024-04-05T02:25:37.468Z,95.89
2024-04-05T02:28:02.419Z,95.86
2024-04-05T02:30:28.924Z,95.91
2024-04-05T02:32:55.492Z,95.97
2024-04-05T02:35:22.204Z,95.86
2024-04-05T02:37:49.088Z,96.02
2024-04-05T02:40:15.921Z,95.98
2024-04-05T02:42:42.529Z,95.85
2024-04-05T02:45:09.909Z,95.75
2024-04-05T02:47:36.313Z,95.58
2024-04-05T02:50:01.326Z,95.51
2024-04-05T02:52:27.986Z,95.64
2024-04-05T02:54:54.323Z,95.68
2024-04-05T02:57:19.254Z,95.51
2024-04-05T02:59:46.047Z,95.59
2024-04-05T03:02:13.350Z,95.57
2024-04-05T03:04:39.740Z,95.45
2024-04-05T03:07:06.787Z,95.46
2024-04-05T03:09:34.027Z,95.38
2024-04-05T03:12:00.754Z,95.24
2024-04-05T03:14:27.914Z,95.21
2024-04-05T03:16:55.232Z,95.28
2024-04-05T03:19:21.808Z,94.98
2024-04-05T03:21:48.227Z,95.00
2024-04-05T03:24:14.598Z,94.94
2024-04-05T03:26:40.409Z,94.70
2024-04-05T03:29:07.284Z,94.72
2024-04-05T03:31:34.172Z,94.68
2024-04-05T03:34:00.604Z,94.75
2024-04-05T03:36:27.032Z,94.65
2024-04-05T03:38:52.197Z,94.61
2024-04-05T03:41:18.773Z,94.70
2024-04-05T03:43:45.555Z,94.62
2024-04-05T03:46:12.255Z,94.67
2024-04-05T03:48:38.789Z,94.55
2024-04-05T03:51:05.665Z,94.53
2024-04-05T03:53:32.105Z,94.64
2024-04-05T03:55:57.616Z,94.51
2024-04-05T03:58:24.118Z,94.59
2024-04-05T04:00:54.989Z,94.63
2024-04-05T04:03:21.793Z,94.69
2024-04-05T04:05:48.321Z,94.78
2024-04-05T04:08:15.383Z,94.86
2024-04-05T04:10:43.430Z,94.79
2024-04-05T04:13:10.251Z,94.77
2024-04-05T04:15:37.864Z,94.78
2024-04-05T04:18:04.599Z,94.69
2024-04-05T04:20:31.242Z,94.51
2024-04-05T04:22:57.768Z,94.54
2024-04-05T04:25:24.201Z,94.53
2024-04-05T04:27:51.369Z,94.46
2024-04-05T04:30:18.000Z,94.41
2024-04-05T04:32:44.538Z,94.33
2024-04-05T04:35:11.726Z,94.44
2024-04-05T04:37:38.292Z,94.36
2024-04-05T04:40:05.712Z,94.38
2024-04-05T04:42:32.204Z,94.52
2024-04-05T04:44:59.099Z,94.54
2024-04-05T04:47:28.251Z,94.65
2024-04-05T04:49:56.274Z,94.63
2024-04-05T04:52:23.911Z,94.62
2024-04-05T04:54:51.067Z,94.66
2024-04-05T04:57:17.575Z,94.62
2024-04-05T04:59:44.096Z,94.59
2024-04-05T05:02:10.840Z,94.46
2024-04-05T05:04:37.271Z,94.45
2024-04-05T05:07:04.322Z,94.51
2024-04-05T05:09:30.775Z,94.54
2024-04-05T05:11:57.412Z,94.69
2024-04-05T05:14:24.723Z,95.44
2024-04-05T05:16:51.132Z,95.34
2024-04-05T05:19:17.616Z,94.11
2024-04-05T05:21:44.660Z,91.62
2024-04-05T05:24:11.339Z,86.26
2024-04-05T05:26:37.847Z,81.55
2024-04-05T05:29:05.194Z,74.99
2024-04-05T05:31:31.654Z,70.63
2024-04-05T05:33:58.566Z,66.76
2024-04-05T05:36:24.937Z,63.62
2024-04-05T05:38:51.302Z,62.17
2024-04-05T05:41:18.179Z,61.16
2024-04-05T05:43:45.350Z,57.29
2024-04-05T05:46:11.868Z,54.04
2024-04-05T05:48:38.878Z,51.49
2024-04-05T05:51:05.773Z,50.35
2024-04-05T05:53:32.228Z,48.77
2024-04-05T05:56:01.251Z,46.30
2024-04-05T05:58:29.254Z,46.02
2024-04-05T06:00:55.862Z,44.08
2024-04-05T06:03:23.256Z,43.39
2024-04-05T06:05:55.777Z,42.61
2024-04-05T06:08:22.365Z,43.23
2024-04-05T06:10:58.588Z,44.54
2024-04-05T06:13:26.019Z,44.68
2024-04-05T06:15:58.458Z,45.33
2024-04-05T06:18:25.515Z,46.89
2024-04-05T06:20:57.207Z,48.32
2024-04-05T06:23:24.143Z,49.26
2024-04-05T06:25:58.649Z,50.19
2024-04-05T06:28:25.573Z,51.67
2024-04-05T06:30:52.049Z,52.57
2024-04-05T06:33:18.546Z,54.11
2024-04-05T06:35:45.288Z,55.46
2024-04-05T06:38:11.824Z,56.76
2024-04-05T06:40:39.743Z,57.77
2024-04-05T06:43:07.929Z,58.81
2024-04-05T06:45:34.523Z,59.98
2024-04-05T06:48:02.638Z,61.21
2024-04-05T06:50:32.016Z,62.24
2024-04-05T06:53:00.644Z,62.80
2024-04-05T06:55:27.723Z,63.67
2024-04-05T06:57:56.070Z,64.47
2024-04-05T07:00:23.377Z,65.15
2024-04-05T07:02:49.911Z,65.61
2024-04-05T07:05:17.034Z,65.60
2024-04-05T07:07:43.568Z,66.54
2024-04-05T07:10:10.931Z,66.79
2024-04-05T07:12:37.663Z,62.12
2024-04-05T07:15:06.268Z,59.56
2024-04-05T07:17:32.739Z,56.59
2024-04-05T07:20:00.568Z,54.84
2024-04-05T07:22:28.894Z,55.16
2024-04-05T07:24:55.785Z,55.74
2024-04-05T07:27:23.699Z,54.23
2024-04-05T07:29:50.289Z,51.65
2024-04-05T07:32:17.482Z,51.95
2024-04-05T07:34:43.962Z,51.59
2024-04-05T07:37:11.254Z,51.07
2024-04-05T07:39:40.415Z,51.38
2024-04-05T07:42:07.664Z,52.16
2024-04-05T07:44:34.816Z,52.58
2024-04-05T07:47:01.264Z,53.10
2024-04-05T07:49:27.786Z,53.78
2024-04-05T07:51:54.422Z,53.91
2024-04-05T07:54:22.191Z,54.30
2024-04-05T07:56:51.916Z,54.85
2024-04-05T07:59:23.290Z,55.09
2024-04-05T08:01:50.411Z,55.21
2024-04-05T08:04:16.877Z,55.67
2024-04-05T08:06:43.467Z,55.88
2024-04-05T08:09:12.769Z,56.12
2024-04-05T08:11:39.303Z,56.47
2024-04-05T08:14:05.736Z,56.40
2024-04-05T08:16:32.270Z,56.24
2024-04-05T08:18:59.321Z,56.61
2024-04-05T08:21:25.859Z,56.84
2024-04-05T08:23:52.334Z,56.97
2024-04-05T08:26:18.713Z,57.26
2024-04-05T08:28:45.259Z,57.48
2024-04-05T08:31:11.807Z,57.20
2024-04-05T08:33:38.351Z,57.01
2024-04-05T08:36:05.072Z,57.07
2024-04-05T08:38:31.489Z,56.58
2024-04-05T08:40:59.544Z,56.54
2024-04-05T08:43:32.261Z,56.69
2024-04-05T08:45:58.795Z,57.02
2024-04-05T08:48:29.649Z,57.33
2024-04-05T08:50:56.988Z,57.19
2024-04-05T08:53:23.635Z,57.12
2024-04-05T08:55:50.986Z,57.22
2024-04-05T08:58:18.463Z,57.57
2024-04-05T09:00:45.286Z,57.37
2024-04-05T09:03:12.839Z,57.01
2024-04-05T09:05:39.275Z,57.01
2024-04-05T09:08:10.391Z,57.26
2024-04-05T09:10:37.656Z,57.24
2024-04-05T09:13:06.169Z,57.33
2024-04-05T09:15:33.716Z,57.42
2024-04-05T09:18:00.725Z,57.61
2024-04-05T09:20:31.395Z,57.87
2024-04-05T09:23:05.531Z,58.32
2024-04-05T09:25:33.805Z,58.56
2024-04-05T09:28:13.266Z,58.82
2024-04-05T09:30:41.913Z,59.05
2024-04-05T09:33:08.546Z,59.52
2024-04-05T09:35:39.075Z,59.70
2024-04-05T09:38:06.184Z,59.69
2024-04-05T09:40:33.945Z,59.92
2024-04-05T09:43:02.460Z,60.25
2024-04-05T09:45:32.390Z,60.44
2024-04-05T09:47:59.928Z,60.20
2024-04-05T09:50:27.472Z,60.06
2024-04-05T09:52:55.460Z,59.68
2024-04-05T09:55:25.666Z,58.87
2024-04-05T09:57:52.742Z,58.63
2024-04-05T10:00:24.916Z,58.56
2024-04-05T10:02:54.569Z,58.91
2024-04-05T10:05:29.840Z,58.38
2024-04-05T10:07:57.241Z,58.02
2024-04-05T10:10:33.745Z,57.36
2024-04-05T10:13:10.665Z,57.16
2024-04-05T10:15:37.198Z,57.27
2024-04-05T10:18:03.647Z,57.84
2024-04-05T10:20:31.022Z,58.28
2024-04-05T10:23:04.787Z,58.84
2024-04-05T10:25:31.484Z,59.11
2024-04-05T10:27:58.173Z,59.24
2024-04-05T10:30:25.233Z,59.45
2024-04-05T10:33:01.202Z,59.55
2024-04-05T10:35:28.345Z,59.44
2024-04-05T10:38:14.142Z,59.13
2024-04-05T10:40:46.493Z,57.70
2024-04-05T10:43:14.541Z,56.96
2024-04-05T10:45:42.171Z,55.79
2024-04-05T10:48:11.833Z,52.55
2024-04-05T10:50:41.553Z,51.47
2024-04-05T10:53:09.101Z,51.42
2024-04-05T10:55:37.658Z,51.45
2024-04-05T10:58:08.899Z,51.16
2024-04-05T11:00:37.534Z,51.20
2024-04-05T11:03:04.972Z,51.26
2024-04-05T11:05:31.511Z,50.50
2024-04-05T11:08:05.187Z,50.36
2024-04-05T11:10:35.652Z,50.40
2024-04-05T11:13:02.586Z,50.87
2024-04-05T11:15:29.123Z,51.11
2024-04-05T11:18:04.754Z,51.29
2024-04-05T11:20:32.947Z,51.46
2024-04-05T11:23:03.376Z,51.73
2024-04-05T11:25:30.115Z,51.87
2024-04-05T11:27:56.461Z,52.28
2024-04-05T11:30:23.404Z,52.08
2024-04-05T11:32:49.930Z,52.11
2024-04-05T11:35:16.668Z,52.24
2024-04-05T11:37:47.362Z,52.43
2024-04-05T11:40:23.032Z,52.91
2024-04-05T11:42:55.832Z,53.17
2024-04-05T11:45:22.315Z,53.25
2024-04-05T11:47:48.808Z,53.40
2024-04-05T11:50:15.314Z,53.41
2024-04-05T11:52:41.903Z,53.02
2024-04-05T11:55:09.333Z,53.56
2024-04-05T11:57:36.388Z,53.78
2024-04-05T12:00:05.815Z,53.82
2024-04-05T12:02:40.200Z,53.97
2024-04-05T12:05:08.682Z,54.11
2024-04-05T12:07:35.441Z,54.25
2024-04-05T12:10:02.017Z,54.87
2024-04-05T12:12:29.789Z,55.29
2024-04-05T12:14:56.566Z,55.47
2024-04-05T12:17:23.715Z,54.81
2024-04-05T12:19:51.131Z,54.49
2024-04-05T12:22:17.635Z,54.17
2024-04-05T12:24:47.937Z,54.20
2024-04-05T12:27:16.924Z,54.16
2024-04-05T12:29:47.252Z,54.34
2024-04-05T12:32:13.999Z,54.69
2024-04-05T12:34:40.535Z,55.02
2024-04-05T12:37:10.464Z,55.11
2024-04-05T12:39:37.321Z,55.51
2024-04-05T12:42:04.146Z,55.75
2024-04-05T12:44:31.373Z,56.18
2024-04-05T12:46:59.368Z,56.46
2024-04-05T12:49:26.190Z,56.72
2024-04-05T12:51:54.098Z,56.89
2024-04-05T12:54:20.921Z,56.86
2024-04-05T12:56:48.221Z,56.95
2024-04-05T12:59:15.719Z,56.97
2024-04-05T13:01:42.406Z,56.75
2024-04-05T13:04:09.286Z,56.60
2024-04-05T13:06:38.100Z,56.71
2024-04-05T13:09:04.754Z,56.44
2024-04-05T13:11:31.477Z,56.23
2024-04-05T13:13:57.917Z,56.29
2024-04-05T13:16:24.446Z,55.79
2024-04-05T13:18:52.318Z,54.80
2024-04-05T13:21:19.048Z,54.44
2024-04-05T13:23:47.667Z,53.92
2024-04-05T13:26:17.319Z,53.39
2024-04-05T13:28:45.515Z,52.52
2024-04-05T13:31:12.066Z,52.48
2024-04-05T13:33:39.078Z,51.74
2024-04-05T13:36:13.389Z,51.62
2024-04-05T13:38:40.799Z,51.63
2024-04-05T13:41:08.312Z,51.51
2024-04-05T13:43:34.996Z,51.24
2024-04-05T13:46:13.594Z,51.55
2024-04-05T13:48:43.924Z,51.31
2024-04-05T13:51:10.569Z,51.35
2024-04-05T13:53:38.677Z,50.49
2024-04-05T13:56:06.631Z,50.12
2024-04-05T13:58:33.888Z,50.08
2024-04-05T14:01:01.821Z,49.86
2024-04-05T14:03:28.378Z,49.53
2024-04-05T14:05:55.659Z,49.04
2024-04-05T14:08:22.348Z,49.14
2024-04-05T14:10:49.500Z,48.92
2024-04-05T14:13:16.499Z,48.56
2024-04-05T14:15:43.309Z,48.42
2024-04-05T14:18:13.403Z,48.30
2024-04-05T14:20:41.277Z,48.41
2024-04-05T14:23:09.178Z,48.65
2024-04-05T14:25:36.002Z,48.45
2024-04-05T14:28:02.450Z,48.73
2024-04-05T14:30:31.262Z,48.99
2024-04-05T14:32:57.681Z,48.89
2024-04-05T14:35:24.175Z,48.92
2024-04-05T14:37:51.636Z,48.33
2024-04-05T14:40:18.479Z,48.08
2024-04-05T14:42:44.910Z,48.34
2024-04-05T14:45:12.652Z,48.33
2024-04-05T14:47:39.211Z,48.09
2024-04-05T14:50:09.158Z,48.07
2024-04-05T14:52:36.787Z,47.97
2024-04-05T14:55:05.918Z,48.32
2024-04-05T14:57:33.282Z,48.10
2024-04-05T14:59:59.878Z,47.65
2024-04-05T15:02:26.549Z,47.33
2024-04-05T15:04:53.732Z,47.27
2024-04-05T15:07:20.271Z,47.54
2024-04-05T15:09:46.840Z,47.72
2024-04-05T15:12:13.585Z,48.32
2024-04-05T15:14:40.217Z,48.30
2024-04-05T15:17:07.673Z,48.40
2024-04-05T15:19:34.454Z,48.05
2024-04-05T15:22:01.463Z,48.00
2024-04-05T15:24:28.075Z,47.70
2024-04-05T15:26:57.609Z,47.52
2024-04-05T15:29:24.550Z,47.74
2024-04-05T15:31:50.987Z,47.87
2024-04-05T15:34:18.888Z,47.87
2024-04-05T15:36:46.445Z,48.04
2024-04-05T15:39:14.705Z,48.30
2024-04-05T15:41:41.228Z,48.42
2024-04-05T15:44:07.936Z,48.24
2024-04-05T15:46:35.528Z,48.32
2024-04-05T15:49:01.963Z,48.22
2024-04-05T15:51:28.499Z,48.57
2024-04-05T15:53:59.967Z,48.66
2024-04-05T15:56:27.145Z,48.75
2024-04-05T15:58:53.639Z,48.73
2024-04-05T16:01:20.331Z,49.02
2024-04-05T16:03:48.880Z,49.05
2024-04-05T16:06:15.575Z,48.85
2024-04-05T16:08:43.094Z,49.29
2024-04-05T16:11:11.784Z,49.31
2024-04-05T16:13:38.563Z,49.26
2024-04-05T16:16:06.653Z,49.37
2024-04-05T16:18:37.730Z,49.45
2024-04-05T16:21:10.326Z,49.39
2024-04-05T16:23:37.228Z,49.64
2024-04-05T16:26:05.387Z,49.78
2024-04-05T16:28:31.935Z,49.64
2024-04-05T16:30:58.570Z,49.92
2024-04-05T16:33:25.523Z,49.91
2024-04-05T16:35:52.560Z,49.91
2024-04-05T16:38:22.607Z,49.85
2024-04-05T16:40:49.484Z,49.73
2024-04-05T16:43:16.269Z,49.75
2024-04-05T16:45:43.937Z,49.86
2024-04-05T16:48:10.759Z,49.96
2024-04-05T16:50:41.614Z,50.15
2024-04-05T16:53:10.948Z,50.36
2024-04-05T16:55:37.594Z,50.61
2024-04-05T16:58:04.801Z,50.82
2024-04-05T17:00:31.646Z,51.04
2024-04-05T17:03:06.071Z,51.29
2024-04-05T17:05:34.034Z,51.52
2024-04-05T17:08:02.527Z,51.81
2024-04-05T17:10:38.489Z,52.04
2024-04-05T17:13:08.514Z,52.29
2024-04-05T17:15:35.044Z,52.40
2024-04-05T17:18:01.793Z,52.68
2024-04-05T17:20:28.414Z,52.92
2024-04-05T17:22:55.910Z,53.08
2024-04-05T17:25:22.933Z,53.35
2024-04-05T17:27:50.563Z,53.60
2024-04-05T17:30:17.663Z,53.74
2024-04-05T17:32:45.166Z,54.06
2024-04-05T17:35:11.735Z,54.37
2024-04-05T17:37:38.198Z,54.61
2024-04-05T17:40:06.227Z,54.96
2024-04-05T17:42:34.428Z,55.12
2024-04-05T17:45:00.864Z,55.29
2024-04-05T17:47:27.338Z,55.54
2024-04-05T17:49:53.823Z,55.70
2024-04-05T17:52:20.596Z,55.98
2024-04-05T17:54:47.703Z,56.31
2024-04-05T17:57:14.126Z,56.61
2024-04-05T17:59:40.566Z,56.88
2024-04-05T18:02:07.448Z,57.20
2024-04-05T18:04:35.784Z,57.32
2024-04-05T18:07:02.305Z,57.55
2024-04-05T18:09:29.162Z,57.84
2024-04-05T18:11:55.696Z,57.98
2024-04-05T18:14:22.341Z,58.27
2024-04-05T18:16:48.880Z,58.55
2024-04-05T18:19:18.377Z,58.95
2024-04-05T18:21:45.036Z,59.03
2024-04-05T18:24:12.003Z,59.34
2024-04-05T18:26:38.433Z,59.59
2024-04-05T18:29:04.943Z,59.98
2024-04-05T18:31:31.669Z,60.14
2024-04-05T18:33:59.267Z,60.43
2024-04-05T18:36:25.888Z,60.70
2024-04-05T18:38:57.169Z,60.85
2024-04-05T18:41:25.266Z,61.22
2024-04-05T18:43:51.938Z,61.65
2024-04-05T18:46:19.838Z,61.72
2024-04-05T18:48:46.951Z,62.06
2024-04-05T18:51:18.400Z,62.47
2024-04-05T18:53:44.941Z,62.62
2024-04-05T18:56:15.634Z,62.86
2024-04-05T18:58:42.308Z,63.22
2024-04-05T19:01:09.966Z,63.64
2024-04-05T19:03:42.138Z,63.76
2024-04-05T19:06:11.274Z,64.08
2024-04-05T19:08:38.287Z,64.31
2024-04-05T19:11:05.876Z,64.47
2024-04-05T19:13:37.293Z,64.77
2024-04-05T19:16:04.986Z,64.71
2024-04-05T19:18:31.657Z,65.04
2024-04-05T19:21:01.584Z,65.25
2024-04-05T19:23:30.512Z,65.47
2024-04-05T19:25:57.349Z,65.77
2024-04-05T19:28:24.129Z,65.92
2024-04-05T19:30:56.128Z,65.91
2024-04-05T19:33:23.491Z,66.34
2024-04-05T19:35:50.255Z,66.45
2024-04-05T19:38:18.458Z,66.57
2024-04-05T19:40:49.060Z,66.53
2024-04-05T19:43:15.900Z,66.71
2024-04-05T19:45:43.870Z,67.01
2024-04-05T19:48:11.800Z,67.27
2024-04-05T19:50:38.354Z,67.78
2024-04-05T19:53:07.312Z,67.53
2024-04-05T19:55:34.110Z,67.47
2024-04-05T19:58:04.057Z,67.74
2024-04-05T20:00:35.086Z,68.13
2024-04-05T20:03:01.559Z,68.17
2024-04-05T20:05:28.108Z,68.30
2024-04-05T20:07:55.391Z,68.31
2024-04-05T20:10:21.921Z,68.43
2024-04-05T20:12:48.771Z,68.53
2024-04-05T20:15:15.650Z,68.47
2024-04-05T20:17:42.026Z,68.54
2024-04-05T20:20:08.333Z,68.72
2024-04-05T20:22:34.917Z,68.83
2024-04-05T20:25:01.549Z,69.00
2024-04-05T20:27:28.496Z,69.32
2024-04-05T20:30:12.509Z,69.36
2024-04-05T20:32:39.180Z,69.42
2024-04-05T20:35:07.507Z,69.74
2024-04-05T20:37:34.745Z,70.09
2024-04-05T20:40:02.538Z,70.19
2024-04-05T20:42:28.907Z,70.35
2024-04-05T20:44:56.366Z,70.37
2024-04-05T20:47:22.920Z,70.79
2024-04-05T20:49:49.336Z,70.92
2024-04-05T20:52:16.105Z,70.97
2024-04-05T20:54:42.851Z,71.24
2024-04-05T20:57:10.444Z,71.01
2024-04-05T20:59:37.660Z,71.11
2024-04-05T21:02:04.367Z,70.88
2024-04-05T21:04:31.371Z,70.93
2024-04-05T21:06:58.377Z,70.91
2024-04-05T21:09:26.033Z,70.88
2024-04-05T21:11:52.593Z,70.96
2024-04-05T21:14:19.226Z,70.82
2024-04-05T21:16:46.179Z,70.93
2024-04-05T21:19:12.689Z,70.96
2024-04-05T21:21:39.239Z,70.86
2024-04-05T21:24:06.245Z,70.92
2024-04-05T21:26:33.102Z,70.88
2024-04-05T21:29:00.032Z,70.83
2024-04-05T21:31:26.716Z,70.69
2024-04-05T21:33:53.536Z,70.72
2024-04-05T21:36:20.698Z,70.60
2024-04-05T21:38:48.042Z,70.43
2024-04-05T21:41:14.785Z,70.27
2024-04-05T21:43:41.530Z,70.27
2024-04-05T21:46:08.551Z,70.12
2024-04-05T21:48:36.253Z,70.08
2024-04-05T21:53:33.303Z,69.64
2024-04-05T21:56:00.139Z,69.61
2024-04-05T21:58:28.827Z,69.62
2024-04-05T22:00:55.506Z,69.29
2024-04-05T22:03:22.202Z,69.12
2024-04-05T22:05:48.742Z,69.07
2024-04-05T22:08:15.337Z,68.94
2024-04-05T22:10:41.919Z,69.02
2024-04-05T22:13:08.662Z,69.15
2024-04-05T22:15:35.496Z,69.20
2024-04-05T22:18:02.065Z,69.04
2024-04-05T22:20:28.556Z,69.32
2024-04-05T22:22:55.111Z,69.29
2024-04-05T22:25:24.511Z,69.19
2024-04-05T22:27:51.009Z,69.29
2024-04-05T22:30:18.965Z,69.36
2024-04-05T22:32:45.354Z,69.40
2024-04-05T22:35:11.314Z,69.53
2024-04-05T22:37:37.861Z,69.40
2024-04-05T22:40:02.750Z,69.51
2024-04-05T22:42:29.721Z,69.49
2024-04-05T22:44:56.390Z,69.58
2024-04-05T22:47:21.340Z,69.58
2024-04-05T22:49:47.923Z,69.52
2024-04-05T22:52:14.358Z,69.77
2024-04-05T22:54:40.861Z,69.62
2024-04-05T22:57:07.832Z,69.50
2024-04-05T22:59:34.205Z,69.45
2024-04-05T23:02:00.707Z,69.31
2024-04-05T23:04:27.395Z,69.39
2024-04-05T23:06:53.734Z,69.24
2024-04-05T23:09:20.210Z,69.06
2024-04-05T23:11:46.520Z,69.08
2024-04-05T23:14:11.442Z,68.99
2024-04-05T23:16:37.979Z,69.06
2024-04-05T23:19:04.328Z,69.16
2024-04-05T23:21:30.687Z,69.22
2024-04-05T23:23:55.597Z,69.21
2024-04-05T23:26:25.130Z,69.25
2024-04-05T23:28:51.575Z,69.40
2024-04-05T23:31:17.925Z,69.53
2024-04-05T23:33:42.842Z,69.67
2024-04-05T23:36:10.004Z,69.86
2024-04-05T23:38:36.640Z,69.66
2024-04-05T23:41:02.992Z,69.89
2024-04-05T23:43:28.482Z,69.73
2024-04-05T23:45:54.932Z,69.93
2024-04-05T23:48:19.880Z,69.98
2024-04-05T23:50:46.204Z,69.91
2024-04-05T23:53:11.036Z,70.00
2024-04-05T23:55:38.308Z,70.11
2024-04-05T23:58:05.545Z,70.15
